Arland, Wisconsin
Current Conditions -  °F | °C
As of 11:55 PM on Sunday 21 Dec 2014 (Local Time) from KUBE Reporting Station
Light Snow Light Snow  
Wind Chill: 25°   Ceiling: 400
Heat Index: 32°   Visibility: 1.7mi
Dew Point: 32°   Wind: 8mph
Humidity: 100%   Direction: 150°SSE
Pressure: 29.76"   Gusts: NA
Location:  45.3064°N, 92.1345°W
Report Text: KUBE 220555Z AUTO 15007KT 1 3/4SM -SN OVC004 00/00 A2976 RMK AO2 P0005
Loading
Personal Weather Stations






























Interactive Weather Map New forecast layout! Learn more

10-Day Weather Forecast

Advertisements
Track Severe Weather on mobile